Time;durP1;ratioP1;P1;durP2;ratioP2;P2;SDS_P1;SDS_P2;PMS_P1;PMS_P2;Temp;Humidity;BMP_temperature;BMP_pressure;BME280_temperature;BME280_humidity;BME280_pressure;Samples;Min_cycle;Max_cycle;Signal;HPM_P1;HPM_P2
2022/08/03 00:01:51;;;;;;;1.25;0.63;;;12.30;99.90;;;;;;5051530;28;20023;-73
2022/08/03 00:04:19;;;;;;;3.83;0.90;;;12.40;99.90;;;;;;5055144;28;20028;-72
2022/08/03 00:06:46;;;;;;;1.20;0.55;;;12.50;99.90;;;;;;5054991;28;20035;-74
2022/08/03 00:09:14;;;;;;;1.70;0.73;;;12.50;99.90;;;;;;5054878;28;20036;-74
2022/08/03 00:11:42;;;;;;;0.95;0.60;;;12.50;99.90;;;;;;5054813;28;20017;-73
2022/08/03 00:14:10;;;;;;;1.85;0.60;;;12.60;99.90;;;;;;5051029;28;20127;-73
2022/08/03 00:16:37;;;;;;;1.58;0.55;;;12.60;99.90;;;;;;5054656;28;20017;-72
2022/08/03 00:19:05;;;;;;;1.05;0.57;;;12.60;99.90;;;;;;5054531;28;20035;-74
2022/08/03 00:21:33;;;;;;;1.92;0.50;;;12.70;99.90;;;;;;5054650;28;20025;-72
2022/08/03 00:24:01;;;;;;;0.55;0.47;;;12.70;99.90;;;;;;5054521;28;20029;-73
2022/08/03 00:26:30;;;;;;;1.75;0.50;;;12.80;99.90;;;;;;5054438;28;20029;-73
2022/08/03 00:28:58;;;;;;;4.15;0.90;;;12.90;99.90;;;;;;5054470;28;20463;-74
2022/08/03 00:31:27;;;;;;;0.63;0.50;;;12.90;99.90;;;;;;5054433;28;20033;-73
2022/08/03 00:33:55;;;;;;;0.70;0.50;;;13.00;99.90;;;;;;5052973;28;20036;-75
2022/08/03 00:36:23;;;;;;;1.65;0.75;;;13.00;99.90;;;;;;5054313;28;20021;-75
2022/08/03 00:38:50;;;;;;;0.90;0.45;;;13.00;99.90;;;;;;5054262;28;20033;-74
2022/08/03 00:41:18;;;;;;;0.57;0.43;;;13.00;99.90;;;;;;5054286;28;20509;-75
2022/08/03 00:43:46;;;;;;;1.65;0.90;;;13.00;99.90;;;;;;5053226;28;20044;-75
2022/08/03 00:46:14;;;;;;;3.70;0.70;;;13.10;99.90;;;;;;5052034;28;20021;-74
2022/08/03 00:48:42;;;;;;;0.98;0.47;;;13.20;99.90;;;;;;5054277;28;20052;-74
2022/08/03 00:51:09;;;;;;;0.90;0.57;;;13.20;99.90;;;;;;5054213;28;20021;-74
2022/08/03 00:53:37;;;;;;;1.23;0.60;;;13.30;99.90;;;;;;5053903;28;20029;-75
2022/08/03 00:56:05;;;;;;;0.95;0.65;;;13.50;99.90;;;;;;5054055;28;20366;-73
2022/08/03 00:58:33;;;;;;;4.07;1.00;;;13.60;99.90;;;;;;5053868;28;20064;-75
2022/08/03 01:01:01;;;;;;;5.10;0.50;;;13.70;99.90;;;;;;5053888;28;20029;-74
2022/08/03 01:03:28;;;;;;;2.53;0.55;;;13.80;99.90;;;;;;5053813;28;20494;-74
2022/08/03 01:06:24;;;;;;;2.58;1.02;;;13.90;99.90;;;;;;5053919;28;20021;-75
2022/08/03 01:09:30;;;;;;;1.10;0.43;;;14.00;99.90;;;;;;5053919;28;20364;-72
2022/08/03 01:12:09;;;;;;;1.33;0.50;;;14.10;99.90;;;;;;5011874;28;20467;-73
2022/08/03 01:15:02;;;;;;;1.98;1.05;;;14.20;99.90;;;;;;5044351;28;20033;-74
2022/08/03 01:17:53;;;;;;;3.60;0.70;;;14.30;99.90;;;;;;5052901;28;20070;-72
2022/08/03 01:20:25;;;;;;;1.83;0.70;;;14.40;99.90;;;;;;5052210;28;20036;-73
2022/08/03 01:23:27;;;;;;;0.77;0.60;;;14.50;99.90;;;;;;5050955;28;20378;-75
2022/08/03 01:26:07;;;;;;;2.33;0.68;;;14.60;99.90;;;;;;5036041;28;20116;-75
2022/08/03 01:29:16;;;;;;;1.45;0.52;;;14.70;99.90;;;;;;5051256;28;20088;-76
2022/08/03 01:32:06;;;;;;;2.15;1.00;;;14.90;99.90;;;;;;5052241;28;20512;-73
2022/08/03 01:34:42;;;;;;;0.40;0.40;;;15.10;99.90;;;;;;5050843;28;20492;-74
2022/08/03 01:37:12;;;;;;;1.52;0.73;;;15.20;99.90;;;;;;5053418;28;20048;-72
2022/08/03 01:39:41;;;;;;;1.20;0.30;;;15.20;99.90;;;;;;5053133;28;20033;-73
2022/08/03 01:42:11;;;;;;;1.23;0.40;;;15.30;99.90;;;;;;5053223;28;20033;-72
2022/08/03 01:44:42;;;;;;;1.65;0.50;;;15.30;99.90;;;;;;5053227;28;20033;-73
2022/08/03 01:47:11;;;;;;;1.88;0.95;;;15.50;99.90;;;;;;5053146;28;20021;-73
2022/08/03 01:49:43;;;;;;;2.85;0.77;;;15.70;99.90;;;;;;5053116;28;20028;-72
2022/08/03 01:52:13;;;;;;;1.02;0.30;;;15.80;99.90;;;;;;5053001;28;20370;-73
2022/08/03 01:54:44;;;;;;;0.73;0.50;;;15.80;99.90;;;;;;5051763;28;20438;-73
2022/08/03 01:57:14;;;;;;;5.13;0.75;;;15.90;99.90;;;;;;5050244;28;20025;-73
2022/08/03 01:59:44;;;;;;;1.00;0.40;;;16.00;99.90;;;;;;5052865;28;20133;-73
2022/08/03 02:02:13;;;;;;;0.90;0.40;;;16.00;99.90;;;;;;5052663;28;20468;-75
2022/08/03 02:04:43;;;;;;;0.90;0.50;;;16.10;99.90;;;;;;5052928;28;20032;-75
2022/08/03 02:07:12;;;;;;;2.05;0.70;;;16.10;99.90;;;;;;5052907;28;20021;-74
2022/08/03 02:09:41;;;;;;;0.50;0.50;;;16.10;99.90;;;;;;5052976;28;20017;-73
2022/08/03 02:12:13;;;;;;;2.25;0.40;;;16.20;99.90;;;;;;5052763;28;20040;-74
2022/08/03 02:14:43;;;;;;;0.47;0.43;;;16.20;99.90;;;;;;5052863;28;20013;-75
2022/08/03 02:17:12;;;;;;;1.10;0.40;;;16.20;99.90;;;;;;5052524;28;20017;-75
2022/08/03 02:19:45;;;;;;;1.38;0.50;;;16.20;99.90;;;;;;5052563;28;20051;-75
2022/08/03 02:22:14;;;;;;;2.92;0.82;;;16.10;99.90;;;;;;5050918;28;20021;-72
2022/08/03 02:24:42;;;;;;;0.60;0.43;;;16.20;99.90;;;;;;5055742;28;20017;-74
2022/08/03 02:27:23;;;;;;;0.88;0.38;;;16.20;99.90;;;;;;5059273;28;20374;-75
2022/08/03 02:30:01;;;;;;;0.65;0.45;;;16.20;99.90;;;;;;5059220;28;20150;-75
2022/08/03 02:32:36;;;;;;;1.52;0.50;;;16.20;99.90;;;;;;5059295;28;20032;-74
2022/08/03 02:35:08;;;;;;;1.80;0.90;;;16.30;99.90;;;;;;5059243;28;20020;-74
2022/08/03 02:37:44;;;;;;;1.58;0.50;;;16.40;99.90;;;;;;5057133;28;20383;-73
2022/08/03 02:40:14;;;;;;;3.28;0.60;;;16.40;99.90;;;;;;5059115;28;20107;-73
2022/08/03 02:42:44;;;;;;;1.25;0.50;;;16.50;99.90;;;;;;5059204;28;20021;-75
2022/08/03 02:45:14;;;;;;;3.33;0.52;;;16.50;99.90;;;;;;5059465;28;20382;-75
2022/08/03 02:47:47;;;;;;;1.50;0.50;;;16.50;99.90;;;;;;5059135;28;20017;-74
2022/08/03 02:50:18;;;;;;;1.70;0.40;;;16.60;99.90;;;;;;5056957;28;20474;-73
2022/08/03 02:52:47;;;;;;;1.27;0.60;;;16.70;99.90;;;;;;5059151;28;20059;-75
2022/08/03 02:55:17;;;;;;;0.77;0.50;;;16.70;99.90;;;;;;5056628;28;20028;-75
2022/08/03 02:57:47;;;;;;;3.35;0.30;;;16.90;99.90;;;;;;5059051;28;20021;-75
2022/08/03 03:00:16;;;;;;;1.02;0.47;;;16.90;99.90;;;;;;5058990;28;20402;-75
2022/08/03 03:02:45;;;;;;;2.97;0.50;;;17.00;99.90;;;;;;5058948;28;20482;-75
2022/08/03 03:05:14;;;;;;;2.55;0.57;;;17.00;99.90;;;;;;5056230;28;20024;-73
2022/08/03 03:07:44;;;;;;;2.28;0.63;;;16.90;99.90;;;;;;5059015;28;20488;-74
2022/08/03 03:10:12;;;;;;;0.70;0.40;;;16.90;99.90;;;;;;5057610;28;20532;-73
2022/08/03 03:12:42;;;;;;;0.88;0.30;;;17.00;99.90;;;;;;5059064;28;20028;-73
2022/08/03 03:15:13;;;;;;;2.00;0.77;;;17.00;99.90;;;;;;5056150;28;20528;-74
2022/08/03 03:17:43;;;;;;;1.05;0.50;;;16.90;99.90;;;;;;5058739;28;20033;-73
2022/08/03 03:20:11;;;;;;;0.77;0.38;;;17.00;99.90;;;;;;5058785;28;20029;-74
2022/08/03 03:22:39;;;;;;;3.33;0.40;;;17.00;99.90;;;;;;5058973;28;20083;-73
2022/08/03 03:25:08;;;;;;;1.10;0.50;;;17.00;99.90;;;;;;5058897;28;20470;-74
2022/08/03 03:27:36;;;;;;;3.05;0.50;;;16.90;99.90;;;;;;5056594;28;20488;-75
2022/08/03 03:30:04;;;;;;;1.10;0.40;;;17.00;99.90;;;;;;5057468;28;20021;-73
2022/08/03 03:32:32;;;;;;;0.93;0.60;;;17.10;99.90;;;;;;5058837;28;20370;-73
2022/08/03 03:35:00;;;;;;;1.40;0.38;;;17.10;99.90;;;;;;5056254;28;20442;-73
2022/08/03 03:37:28;;;;;;;1.05;0.47;;;17.10;99.90;;;;;;5054373;28;20025;-74
2022/08/03 03:39:56;;;;;;;2.30;0.43;;;17.20;99.90;;;;;;5054234;28;20025;-73
2022/08/03 03:42:24;;;;;;;2.38;0.82;;;17.20;99.90;;;;;;5055590;28;20048;-74
2022/08/03 03:44:52;;;;;;;0.30;0.28;;;17.20;99.90;;;;;;5055523;28;20085;-73
2022/08/03 03:47:20;;;;;;;1.45;0.45;;;17.30;99.90;;;;;;5053054;28;20095;-74
2022/08/03 03:49:48;;;;;;;0.68;0.40;;;17.40;99.90;;;;;;5055359;28;20017;-74
2022/08/03 03:52:16;;;;;;;2.58;0.70;;;17.50;99.90;;;;;;5055340;28;20036;-72
2022/08/03 03:54:45;;;;;;;2.00;0.70;;;17.70;99.90;;;;;;5055284;28;20525;-74
2022/08/03 03:57:13;;;;;;;3.17;0.73;;;17.70;99.90;;;;;;5054049;28;20040;-75
2022/08/03 03:59:41;;;;;;;0.30;0.30;;;17.80;99.90;;;;;;5055655;28;20061;-75
2022/08/03 04:02:10;;;;;;;0.73;0.45;;;17.80;99.90;;;;;;5055019;28;20033;-76
2022/08/03 04:13:11;;;;;;;2.20;0.47;;;17.80;99.90;;;;;;5056229;28;20044;-77
2022/08/03 04:15:40;;;;;;;1.77;0.40;;;17.80;99.90;;;;;;5055265;28;20025;-76
2022/08/03 04:18:14;;;;;;;0.65;0.50;;;17.70;99.90;;;;;;5055135;28;20903;-75
2022/08/03 04:20:46;;;;;;;4.28;1.00;;;17.70;99.90;;;;;;5055245;28;20382;-75
2022/08/03 04:23:16;;;;;;;2.97;0.90;;;17.70;99.90;;;;;;5055252;28;20021;-74
2022/08/03 04:25:45;;;;;;;5.40;0.80;;;17.80;99.90;;;;;;5055320;28;20064;-74
2022/08/03 04:28:15;;;;;;;0.30;0.30;;;17.80;99.90;;;;;;5055186;28;20054;-74
2022/08/03 04:30:47;;;;;;;0.30;0.30;;;17.90;99.90;;;;;;5055265;28;20013;-72
2022/08/03 04:33:16;;;;;;;0.77;0.40;;;18.00;99.90;;;;;;5055150;28;20031;-73
2022/08/03 04:35:48;;;;;;;1.92;0.65;;;18.00;99.90;;;;;;5055335;28;20488;-73
2022/08/03 04:38:19;;;;;;;1.02;0.45;;;18.10;99.90;;;;;;5054980;28;20120;-74
2022/08/03 04:40:47;;;;;;;0.98;0.73;;;18.20;99.90;;;;;;5054861;28;20106;-73
2022/08/03 04:43:17;;;;;;;0.22;0.20;;;18.20;99.90;;;;;;5054820;28;20086;-74
2022/08/03 04:45:48;;;;;;;0.65;0.50;;;18.20;99.90;;;;;;5054945;28;20021;-74
2022/08/03 04:48:17;;;;;;;0.73;0.47;;;18.20;99.90;;;;;;5054545;28;20033;-73
2022/08/03 04:50:45;;;;;;;1.13;0.47;;;18.20;99.90;;;;;;5054578;28;20028;-73
2022/08/03 04:53:13;;;;;;;1.95;0.40;;;18.20;99.90;;;;;;5054863;28;20094;-75
2022/08/03 04:55:40;;;;;;;0.90;0.50;;;18.20;99.90;;;;;;5054566;28;20146;-74
2022/08/03 04:58:08;;;;;;;0.68;0.52;;;18.10;99.90;;;;;;5054533;28;20068;-74
2022/08/03 05:00:36;;;;;;;1.15;0.50;;;18.10;99.90;;;;;;5054570;28;20478;-75
2022/08/03 05:03:04;;;;;;;3.08;0.60;;;18.10;99.90;;;;;;5054336;28;20040;-74
2022/08/03 05:05:31;;;;;;;0.60;0.50;;;18.20;99.90;;;;;;5054428;28;20021;-74
2022/08/03 05:07:59;;;;;;;2.28;0.88;;;18.10;99.90;;;;;;5053117;28;20075;-75
2022/08/03 05:10:27;;;;;;;1.33;0.60;;;18.10;99.90;;;;;;5052727;28;20059;-73
2022/08/03 05:12:54;;;;;;;1.98;0.65;;;18.10;99.90;;;;;;5050173;28;20382;-73
2022/08/03 05:15:22;;;;;;;6.05;0.93;;;18.10;99.90;;;;;;5052623;28;20470;-72
2022/08/03 05:17:50;;;;;;;1.77;0.55;;;18.10;99.90;;;;;;5052567;28;20060;-74
2022/08/03 05:20:17;;;;;;;2.92;0.30;;;18.10;99.90;;;;;;5053816;28;20056;-73
2022/08/03 05:22:45;;;;;;;1.02;0.40;;;18.10;99.90;;;;;;5050565;28;20469;-75
2022/08/03 05:25:13;;;;;;;1.73;0.43;;;18.00;99.90;;;;;;5051593;28;20087;-73
2022/08/03 05:27:41;;;;;;;0.60;0.40;;;18.00;99.90;;;;;;5050917;28;20013;-72
2022/08/03 05:30:09;;;;;;;0.82;0.40;;;17.90;99.90;;;;;;5052051;28;20025;-73
2022/08/03 05:32:37;;;;;;;3.92;0.40;;;17.90;99.90;;;;;;5052313;28;20024;-73
2022/08/03 05:35:05;;;;;;;0.77;0.40;;;17.90;99.90;;;;;;5052706;28;20466;-72
2022/08/03 05:37:32;;;;;;;0.98;0.32;;;17.90;99.90;;;;;;5051900;28;20327;-75
2022/08/03 05:40:00;;;;;;;0.85;0.38;;;17.90;99.90;;;;;;5051738;28;20032;-72
2022/08/03 05:42:28;;;;;;;1.73;0.52;;;17.90;99.90;;;;;;5050008;28;20100;-75
2022/08/03 05:44:56;;;;;;;3.03;0.40;;;18.00;99.90;;;;;;5034075;28;20021;-73
2022/08/03 05:47:24;;;;;;;1.60;0.40;;;17.90;99.90;;;;;;5033707;28;20029;-75
2022/08/03 05:49:55;;;;;;;0.63;0.30;;;18.00;99.90;;;;;;5033232;28;20039;-74
2022/08/03 05:52:22;;;;;;;2.45;0.40;;;17.90;99.90;;;;;;5050786;28;20117;-73
2022/08/03 05:54:50;;;;;;;1.00;0.60;;;17.90;99.90;;;;;;5037083;28;20036;-75
2022/08/03 05:57:18;;;;;;;0.82;0.40;;;17.90;99.90;;;;;;5037264;28;20017;-74
2022/08/03 05:59:45;;;;;;;3.45;0.47;;;17.80;99.90;;;;;;5034610;28;20033;-75
2022/08/03 06:02:13;;;;;;;1.02;0.60;;;17.80;99.90;;;;;;5033355;28;20120;-76
2022/08/03 06:04:40;;;;;;;1.33;0.40;;;17.80;99.90;;;;;;5033656;28;20025;-75
2022/08/03 06:07:08;;;;;;;2.25;0.65;;;17.80;99.90;;;;;;5032248;28;20017;-74
2022/08/03 06:09:36;;;;;;;0.60;0.35;;;17.80;99.90;;;;;;5035031;28;20018;-74
2022/08/03 06:12:04;;;;;;;0.45;0.40;;;17.80;99.90;;;;;;5034622;28;20017;-74
2022/08/03 06:14:32;;;;;;;0.85;0.57;;;17.90;99.90;;;;;;5034018;28;20028;-75
2022/08/03 06:16:59;;;;;;;1.75;0.70;;;17.90;99.90;;;;;;5037380;28;20022;-74
2022/08/03 06:19:27;;;;;;;1.15;0.50;;;17.90;99.90;;;;;;5033699;28;20040;-74
2022/08/03 06:21:57;;;;;;;1.83;0.60;;;17.90;99.90;;;;;;5049302;28;20364;-74
2022/08/03 06:24:25;;;;;;;0.70;0.55;;;17.90;99.90;;;;;;5032995;28;20025;-75
2022/08/03 06:26:53;;;;;;;1.55;0.55;;;17.80;99.90;;;;;;5038014;28;21233;-73
2022/08/03 06:29:21;;;;;;;1.38;0.60;;;17.80;99.90;;;;;;5034659;28;20482;-75
2022/08/03 06:31:48;;;;;;;1.75;0.70;;;17.70;99.90;;;;;;5035709;28;20026;-75
2022/08/03 06:34:16;;;;;;;1.30;0.50;;;17.70;99.90;;;;;;5036565;28;20017;-75
2022/08/03 06:36:47;;;;;;;1.58;0.50;;;17.50;99.90;;;;;;5033591;28;20096;-75
2022/08/03 06:39:18;;;;;;;1.20;0.80;;;17.50;99.90;;;;;;5033465;28;20108;-75
2022/08/03 06:41:45;;;;;;;4.95;0.52;;;17.50;99.90;;;;;;5048094;28;20021;-75
2022/08/03 06:44:14;;;;;;;4.05;0.57;;;17.40;99.90;;;;;;5034800;28;20033;-74
2022/08/03 06:46:42;;;;;;;1.17;0.60;;;17.40;99.90;;;;;;5034469;28;20021;-75
2022/08/03 06:49:12;;;;;;;2.70;0.50;;;17.30;99.90;;;;;;5039874;28;20032;-75
2022/08/03 06:51:40;;;;;;;1.60;0.60;;;17.30;99.90;;;;;;5033774;28;20049;-75
2022/08/03 06:54:08;;;;;;;0.52;0.50;;;17.20;99.90;;;;;;5034375;28;20108;-75
2022/08/03 06:56:35;;;;;;;1.65;0.70;;;17.20;99.90;;;;;;5032703;28;20022;-75
2022/08/03 06:59:03;;;;;;;1.85;0.70;;;17.10;99.90;;;;;;5032511;28;20471;-74
2022/08/03 07:01:31;;;;;;;1.30;0.47;;;17.10;99.90;;;;;;5034478;28;20022;-75
2022/08/03 07:03:59;;;;;;;1.45;0.65;;;17.10;99.90;;;;;;5050354;28;20056;-73
2022/08/03 07:06:27;;;;;;;1.13;0.73;;;17.00;99.90;;;;;;5051593;28;20020;-75
2022/08/03 07:08:55;;;;;;;1.30;0.65;;;17.00;99.90;;;;;;5051559;28;20025;-74
2022/08/03 07:11:23;;;;;;;1.10;0.80;;;17.00;99.90;;;;;;5053974;28;20013;-74
2022/08/03 07:13:50;;;;;;;0.45;0.30;;;17.00;99.90;;;;;;5055664;28;20017;-75
2022/08/03 07:16:18;;;;;;;0.50;0.40;;;16.90;99.90;;;;;;5055321;28;20043;-75
2022/08/03 07:18:46;;;;;;;0.88;0.50;;;16.80;99.90;;;;;;5055103;28;20033;-73
2022/08/03 07:21:15;;;;;;;0.68;0.40;;;16.80;99.90;;;;;;5055285;28;20019;-73
2022/08/03 07:23:43;;;;;;;1.90;0.80;;;16.70;99.90;;;;;;5055348;28;20028;-74
2022/08/03 07:26:11;;;;;;;2.22;0.60;;;16.70;99.90;;;;;;5052622;28;20021;-74
2022/08/03 07:28:39;;;;;;;1.00;0.50;;;16.70;99.90;;;;;;5055034;28;20075;-75
2022/08/03 07:31:07;;;;;;;1.17;0.68;;;16.60;99.90;;;;;;5054771;28;20013;-75
2022/08/03 07:33:35;;;;;;;1.17;0.50;;;16.60;99.90;;;;;;5052355;28;20017;-75
2022/08/03 07:36:03;;;;;;;2.58;0.63;;;16.60;99.90;;;;;;5053151;28;20017;-75
2022/08/03 07:38:31;;;;;;;2.95;0.90;;;16.50;99.90;;;;;;5053502;28;20559;-75
2022/08/03 07:40:58;;;;;;;1.33;0.57;;;16.50;99.90;;;;;;5054678;28;20040;-75
2022/08/03 07:43:26;;;;;;;1.02;0.60;;;16.50;99.90;;;;;;5053777;28;20021;-75
2022/08/03 07:45:54;;;;;;;1.10;0.80;;;16.40;99.90;;;;;;5053649;28;20103;-74
2022/08/03 07:48:21;;;;;;;2.13;0.68;;;16.40;99.90;;;;;;5054232;28;20441;-75
2022/08/03 07:50:49;;;;;;;1.60;0.77;;;16.40;99.90;;;;;;5053987;28;20043;-75
2022/08/03 07:53:17;;;;;;;3.97;2.20;;;16.40;99.90;;;;;;5054554;28;20112;-76
2022/08/03 07:55:45;;;;;;;1.92;1.30;;;16.40;99.90;;;;;;5053694;28;20047;-76
2022/08/03 07:58:16;;;;;;;0.75;0.55;;;16.40;99.90;;;;;;5051527;28;20041;-76
2022/08/03 08:00:45;;;;;;;3.67;0.93;;;16.30;99.90;;;;;;5049724;28;20029;-76
2022/08/03 08:03:12;;;;;;;1.17;0.60;;;16.30;99.90;;;;;;5034593;28;20447;-76
2022/08/03 08:05:40;;;;;;;0.85;0.60;;;16.30;99.90;;;;;;5037333;28;20010;-76
2022/08/03 08:08:08;;;;;;;0.65;0.50;;;16.30;99.90;;;;;;5039848;28;20052;-76
2022/08/03 08:10:36;;;;;;;1.13;0.45;;;16.30;99.90;;;;;;5046938;28;20037;-75
2022/08/03 08:13:04;;;;;;;1.60;0.70;;;16.30;99.90;;;;;;5046710;28;20469;-75
2022/08/03 08:15:32;;;;;;;2.45;0.82;;;16.20;99.90;;;;;;5048528;28;20378;-76
2022/08/03 08:18:02;;;;;;;2.70;0.57;;;16.20;99.90;;;;;;5038848;28;20489;-75
2022/08/03 08:20:34;;;;;;;1.63;0.65;;;16.20;99.90;;;;;;5041177;28;20041;-76
2022/08/03 08:23:04;;;;;;;1.58;0.63;;;16.20;99.90;;;;;;5043491;28;20024;-79
2022/08/03 08:25:32;;;;;;;1.75;0.73;;;16.10;99.90;;;;;;5041461;28;20044;-76
2022/08/03 08:28:02;;;;;;;1.73;0.68;;;16.10;99.90;;;;;;5035569;28;20029;-76
2022/08/03 08:30:31;;;;;;;1.25;0.63;;;16.10;99.90;;;;;;5045329;28;20551;-76
2022/08/03 08:32:59;;;;;;;1.92;0.70;;;16.10;99.90;;;;;;5040955;28;20427;-74
2022/08/03 08:35:27;;;;;;;4.68;1.65;;;16.10;99.90;;;;;;5040183;28;20018;-74
2022/08/03 08:38:00;;;;;;;1.80;1.20;;;16.10;99.90;;;;;;5056694;28;20391;-75
2022/08/03 08:40:28;;;;;;;2.83;1.27;;;16.10;99.90;;;;;;5047621;28;20025;-75
2022/08/03 08:42:56;;;;;;;4.97;1.02;;;16.00;99.90;;;;;;5049290;28;20024;-74
2022/08/03 08:45:24;;;;;;;3.53;0.85;;;16.00;99.90;;;;;;5048499;28;20021;-76
2022/08/03 08:47:54;;;;;;;2.42;1.17;;;16.00;99.90;;;;;;5035657;28;20018;-76
2022/08/03 08:50:23;;;;;;;2.08;1.20;;;16.00;99.90;;;;;;5037542;28;20513;-75
2022/08/03 08:52:53;;;;;;;2.80;1.50;;;15.90;99.90;;;;;;5053137;28;20482;-75
2022/08/03 08:55:22;;;;;;;2.88;1.40;;;15.90;99.90;;;;;;5054062;28;20025;-75
2022/08/03 08:58:01;;;;;;;2.17;1.02;;;15.90;99.90;;;;;;5053120;28;20017;-76
2022/08/03 09:00:30;;;;;;;0.82;0.60;;;15.90;99.90;;;;;;5040490;28;20025;-75
2022/08/03 09:02:58;;;;;;;3.83;1.05;;;15.90;99.90;;;;;;5048425;28;20044;-75
2022/08/03 09:05:25;;;;;;;2.03;0.82;;;15.90;99.90;;;;;;5032484;28;20041;-76
2022/08/03 09:10:28;;;;;;;2.40;1.20;;;15.90;99.90;;;;;;5850217;23;20037;-77
2022/08/03 09:12:56;;;;;;;2.47;0.93;;;15.80;99.90;;;;;;5004894;28;20037;-80
2022/08/03 09:15:32;;;;;;;3.92;1.48;;;15.90;99.90;;;;;;4993386;28;20033;-78
2022/08/03 09:18:02;;;;;;;2.78;1.50;;;15.90;99.90;;;;;;5007907;28;20033;-77
2022/08/03 09:20:32;;;;;;;2.80;1.30;;;15.90;99.90;;;;;;5010669;28;20032;-80
2022/08/03 09:23:03;;;;;;;2.78;1.10;;;15.80;99.90;;;;;;5009265;28;20018;-77
2022/08/03 09:25:42;;;;;;;4.55;1.10;;;15.80;99.90;;;;;;5011971;28;20026;-78
2022/08/03 09:28:11;;;;;;;3.20;0.85;;;15.80;99.90;;;;;;5011873;28;20129;-80
2022/08/03 09:30:44;;;;;;;0.93;0.70;;;15.80;99.90;;;;;;5009079;28;20026;-78
2022/08/03 09:33:16;;;;;;;1.77;0.85;;;15.80;99.90;;;;;;5011317;28;20018;-79
2022/08/03 09:35:47;;;;;;;1.73;0.95;;;15.80;99.90;;;;;;5011345;28;20037;-79
2022/08/03 09:38:18;;;;;;;2.03;1.02;;;15.80;99.90;;;;;;5004692;28;20042;-79
2022/08/03 09:40:46;;;;;;;1.35;0.88;;;15.70;99.90;;;;;;4992760;28;20410;-78
2022/08/03 09:43:14;;;;;;;1.90;0.80;;;15.70;99.90;;;;;;4996918;28;20032;-79
2022/08/03 09:45:45;;;;;;;2.63;0.95;;;15.70;99.90;;;;;;5011828;28;20040;-80
2022/08/03 09:48:30;;;;;;;4.32;1.52;;;15.70;99.90;;;;;;4996298;28;20374;-79
2022/08/03 09:51:00;;;;;;;1.58;0.73;;;15.70;99.90;;;;;;4994182;28;20030;-79
2022/08/03 09:53:28;;;;;;;2.22;1.00;;;15.70;99.90;;;;;;4994043;28;20057;-80
2022/08/03 09:56:01;;;;;;;5.50;1.50;;;15.70;99.90;;;;;;4995893;28;20426;-80
2022/08/03 09:58:31;;;;;;;3.70;1.33;;;15.60;99.90;;;;;;5004389;28;20061;-78
2022/08/03 10:00:59;;;;;;;2.15;1.08;;;15.60;99.90;;;;;;5003447;28;20026;-78
2022/08/03 10:03:29;;;;;;;3.45;1.08;;;15.60;99.90;;;;;;4994871;28;20045;-80
2022/08/03 10:05:58;;;;;;;2.75;1.10;;;15.60;99.90;;;;;;4991630;28;20033;-77
2022/08/03 10:08:26;;;;;;;2.45;1.38;;;15.60;99.90;;;;;;4989816;28;20033;-80
2022/08/03 10:10:54;;;;;;;2.60;0.93;;;15.60;99.90;;;;;;4985683;28;20042;-79
2022/08/03 10:13:22;;;;;;;1.33;0.70;;;15.60;99.90;;;;;;4994195;28;20041;-80
2022/08/03 10:15:51;;;;;;;1.85;1.08;;;15.60;99.90;;;;;;4996164;28;20474;-79
2022/08/03 10:18:18;;;;;;;3.88;1.00;;;15.60;99.90;;;;;;4993680;28;20042;-78
2022/08/03 10:21:02;;;;;;;3.03;1.10;;;15.60;99.90;;;;;;5000497;28;20085;-78
2022/08/03 10:23:35;;;;;;;1.05;0.70;;;15.60;99.90;;;;;;5001860;28;20033;-79
2022/08/03 10:26:04;;;;;;;0.98;0.75;;;15.60;99.90;;;;;;4994625;28;20104;-79
2022/08/03 10:28:52;;;;;;;0.90;0.60;;;15.50;99.90;;;;;;4993335;28;20019;-80
2022/08/03 10:31:21;;;;;;;2.13;1.02;;;15.60;99.90;;;;;;4993774;28;20368;-79
2022/08/03 10:33:51;;;;;;;3.30;1.23;;;15.60;99.90;;;;;;4992217;28;20430;-81
2022/08/03 10:36:22;;;;;;;3.33;1.13;;;15.50;99.90;;;;;;4993609;28;20058;-81
2022/08/03 10:38:52;;;;;;;1.60;1.00;;;15.50;99.90;;;;;;4993093;28;20084;-79
2022/08/03 10:41:26;;;;;;;4.68;1.00;;;15.50;99.90;;;;;;4995687;28;20030;-79
2022/08/03 10:44:04;;;;;;;2.30;0.90;;;15.50;99.90;;;;;;4996194;28;20022;-81
2022/08/03 10:46:34;;;;;;;1.95;1.00;;;15.40;99.90;;;;;;4998338;28;20355;-81
2022/08/03 10:49:06;;;;;;;2.00;1.10;;;15.40;99.90;;;;;;4997140;28;20029;-80
2022/08/03 10:51:35;;;;;;;1.98;0.90;;;15.40;99.90;;;;;;4997122;28;20026;-78
2022/08/03 10:54:02;;;;;;;1.75;0.90;;;15.40;99.90;;;;;;4994906;28;20029;-76
2022/08/03 10:59:39;;;;;;;4.20;0.88;;;15.40;99.90;;;;;;4996319;28;20089;-79
2022/08/03 11:02:08;;;;;;;3.22;1.33;;;15.40;99.90;;;;;;4999047;28;20068;-78
2022/08/03 11:04:36;;;;;;;1.95;1.02;;;15.40;99.90;;;;;;4997112;28;20018;-78
2022/08/03 11:07:24;;;;;;;2.35;1.20;;;15.40;99.90;;;;;;4997367;28;20030;-77
2022/08/03 11:09:55;;;;;;;2.03;1.00;;;15.50;99.90;;;;;;4996949;28;20374;-78
2022/08/03 11:12:26;;;;;;;0.90;0.60;;;15.40;99.90;;;;;;4995731;28;20034;-78
2022/08/03 11:14:56;;;;;;;1.83;0.98;;;15.40;99.90;;;;;;4996132;28;20044;-79
2022/08/03 11:17:24;;;;;;;1.90;1.20;;;15.50;99.90;;;;;;4997640;28;20021;-78
2022/08/03 11:19:53;;;;;;;1.35;0.90;;;15.40;99.90;;;;;;4997160;28;20033;-78
2022/08/03 11:22:23;;;;;;;1.65;0.80;;;15.40;99.90;;;;;;4997183;28;20118;-77
2022/08/03 11:24:57;;;;;;;2.90;0.82;;;15.50;99.90;;;;;;4996378;28;20023;-78
2022/08/03 11:27:27;;;;;;;1.17;0.70;;;15.50;99.90;;;;;;4996052;28;20014;-78
2022/08/03 11:30:06;;;;;;;4.95;1.13;;;15.50;99.90;;;;;;5013291;28;20041;-76
2022/08/03 11:32:39;;;;;;;1.65;0.98;;;15.50;99.90;;;;;;5014277;28;20026;-79
2022/08/03 11:35:32;;;;;;;2.10;0.90;;;15.50;99.90;;;;;;5012090;28;20014;-80
2022/08/03 11:38:00;;;;;;;1.40;0.93;;;15.50;99.90;;;;;;5012676;28;20025;-78
2022/08/03 11:40:44;;;;;;;2.78;1.30;;;15.50;99.90;;;;;;5014058;28;20045;-79
2022/08/03 11:43:33;;;;;;;2.30;1.15;;;15.50;99.90;;;;;;5014059;28;20092;-79
2022/08/03 11:46:04;;;;;;;4.22;0.90;;;15.50;99.90;;;;;;5011410;28;20022;-79
2022/08/03 11:48:43;;;;;;;1.52;1.02;;;15.50;99.90;;;;;;5008310;28;20026;-79
2022/08/03 11:51:40;;;;;;;1.45;0.80;;;15.50;99.90;;;;;;4995404;28;20023;-78
2022/08/03 11:54:10;;;;;;;1.75;1.05;;;15.50;99.90;;;;;;4989054;28;20026;-76
2022/08/03 11:56:49;;;;;;;1.67;1.05;;;15.40;99.90;;;;;;4994790;28;20023;-78
2022/08/03 11:59:17;;;;;;;1.17;0.90;;;15.40;99.90;;;;;;4995472;28;20483;-78
2022/08/03 12:01:45;;;;;;;2.63;0.90;;;15.40;99.90;;;;;;5002791;28;20030;-76
2022/08/03 12:04:15;;;;;;;2.28;0.90;;;15.40;99.90;;;;;;5007460;28;20080;-80
2022/08/03 12:06:59;;;;;;;2.00;0.85;;;15.40;99.90;;;;;;4998775;28;20034;-78
2022/08/03 12:09:27;;;;;;;3.42;1.10;;;15.40;99.90;;;;;;4993651;28;20019;-79
2022/08/03 12:11:54;;;;;;;1.42;0.90;;;15.30;99.90;;;;;;4993812;28;20046;-80
2022/08/03 12:14:22;;;;;;;2.67;0.88;;;15.30;99.90;;;;;;4995115;28;20093;-78
2022/08/03 12:16:51;;;;;;;2.38;0.90;;;15.30;99.90;;;;;;4998696;28;20025;-79
2022/08/03 12:19:18;;;;;;;1.42;0.75;;;15.30;99.90;;;;;;4995556;28;20042;-79
2022/08/03 12:21:48;;;;;;;2.47;0.82;;;15.30;99.90;;;;;;4996220;28;20073;-76
2022/08/03 12:24:15;;;;;;;1.50;1.15;;;15.30;99.90;;;;;;4994124;28;20081;-80
2022/08/03 12:26:52;;;;;;;1.45;1.00;;;15.30;99.90;;;;;;4995551;28;20022;-80
2022/08/03 12:29:25;;;;;;;4.13;1.00;;;15.30;99.90;;;;;;4992960;28;20093;-80
2022/08/03 12:31:56;;;;;;;3.30;1.23;;;15.30;99.90;;;;;;4993223;28;20470;-80
2022/08/03 12:34:24;;;;;;;5.38;1.20;;;15.30;99.90;;;;;;4994652;28;20113;-81
2022/08/03 12:36:56;;;;;;;3.65;1.17;;;15.20;99.90;;;;;;4999499;28;20018;-82
2022/08/03 12:39:28;;;;;;;5.00;1.08;;;15.20;99.90;;;;;;5003430;28;20049;-82
2022/08/03 12:41:57;;;;;;;3.72;1.30;;;15.20;99.90;;;;;;4997437;28;20017;-81
2022/08/03 12:44:35;;;;;;;1.35;0.85;;;15.20;99.90;;;;;;4997007;28;20066;-81
2022/08/03 12:47:05;;;;;;;1.90;0.90;;;15.20;99.90;;;;;;4998073;28;20022;-81
2022/08/03 12:49:50;;;;;;;3.97;0.95;;;15.20;99.90;;;;;;4995958;28;20026;-81
2022/08/03 12:52:20;;;;;;;5.45;1.23;;;15.10;99.90;;;;;;4996612;28;20026;-79
2022/08/03 12:55:01;;;;;;;2.38;1.13;;;15.10;99.90;;;;;;5005547;28;20453;-79
2022/08/03 12:57:43;;;;;;;2.92;1.33;;;15.10;99.90;;;;;;5003718;28;20053;-79
2022/08/03 13:00:18;;;;;;;2.55;0.82;;;15.10;99.90;;;;;;5005320;28;20025;-79
2022/08/03 13:02:57;;;;;;;4.22;0.95;;;15.10;99.90;;;;;;5007346;28;20141;-79
2022/08/03 13:05:25;;;;;;;6.13;1.38;;;15.00;99.90;;;;;;4999991;28;20057;-80
2022/08/03 13:07:53;;;;;;;3.45;1.13;;;15.10;99.90;;;;;;5006591;28;20029;-80
2022/08/03 13:10:32;;;;;;;2.40;1.17;;;15.10;99.90;;;;;;5007571;28;20021;-81
2022/08/03 13:13:03;;;;;;;4.93;1.30;;;15.00;99.90;;;;;;5002267;28;20502;-80
2022/08/03 13:15:31;;;;;;;2.40;1.13;;;15.00;99.90;;;;;;5000338;28;20018;-78
2022/08/03 13:17:59;;;;;;;2.30;1.38;;;15.00;99.90;;;;;;5002724;28;20022;-80
2022/08/03 13:20:26;;;;;;;5.15;1.00;;;15.00;99.90;;;;;;5005196;28;20041;-80